Latest Weather Observations for Mount Crawford

IDS60801

Issued at 5:01 pm CDT Thursday 23 February 2017 (issued every 30 minutes, with the page automatically refreshed every 10 minutes)

About weather observations | Map of weather stations | Latest weather observations for SA | Other Formats
Station Details ID: 023878 Name: MOUNT CRAWFORD AWS Lat: -34.73 Lon: 138.93 Height: 525.0 m
Data from the previous 72 hours. | See also: Recent months at Mount Crawford
Date/Time
CDT
Temp
°C
App
Temp
°C
Dew
Point
°C
Rel
Hum
%
Delta-T
°C
Wind Press
QNH
hPa
Press
MSL
hPa
Rain since
9am
mm
Dir  Spd
km/h
Gust
km/h
Spd
kts
Gust
kts
23/05:00pm 21.0 17.5 10.2 50 6.0 W 19 26 10 14 1020.9 1018.7 0.0
23/04:30pm 21.6 18.5 11.6 53 5.7 W 19 26 10 14 1020.8 1018.6 0.0
23/04:00pm 21.5 18.2 11.5 53 5.7 W 20 28 11 15 1020.8 1018.6 0.0
23/03:30pm 21.8 19.2 10.6 49 6.3 W 15 26 8 14 1020.8 1018.6 0.0
23/03:00pm 22.6 19.8 10.1 45 7.0 WNW 15 28 8 15 1020.8 1018.6 0.0
23/02:30pm 21.0 18.0 9.3 47 6.4 W 15 22 8 12 1021.0 1018.8 0.0
23/02:00pm 20.3 17.7 9.5 50 5.9 WSW 13 20 7 11 1021.3 1019.0 0.0
23/01:30pm 20.0 17.4 9.3 50 5.8 SW 13 20 7 11 1021.2 1018.9 0.0
23/01:00pm 19.6 17.3 10.3 55 5.1 W 13 20 7 11 1021.3 1019.0 0.0
23/12:30pm 18.8 16.3 9.8 56 4.9 W 13 22 7 12 1021.6 1019.4 0.0
23/12:00pm 19.6 18.1 10.6 56 5.0 WNW 9 17 5 9 1021.7 1019.5 0.0
23/11:30am 17.7 16.3 11.0 65 3.7 W 9 15 5 8 1021.7 1019.5 0.0
23/11:00am 16.6 14.2 10.2 66 3.5 W 13 17 7 9 1021.7 1019.5 0.0
23/10:30am 16.5 14.8 11.2 71 2.9 W 11 17 6 9 1021.5 1019.3 0.0
23/10:00am 16.4 14.8 11.6 73 2.7 SW 11 19 6 10 1021.2 1018.9 0.0
23/09:30am 15.4 14.1 12.5 83 1.6 WSW 11 15 6 8 1020.7 1018.5 0.0
23/09:00am 14.7 14.4 13.2 91 0.9 SW 7 13 4 7 1020.5 1018.3 0.0
23/08:30am 14.4 14.3 13.8 96 0.3 WSW 7 13 4 7 1020.0 1017.8 0.0
23/08:00am 13.5 12.8 13.2 98 0.2 WSW 9 11 5 6 1019.5 1017.2 0.0
23/07:30am 13.5 12.8 13.2 98 0.2 SW 9 11 5 6 1018.9 1016.7 0.0
23/07:00am 12.9 11.7 12.7 99 0.1 WSW 11 17 6 9 1018.3 1016.1 0.0
23/06:30am 12.9 10.9 12.7 99 0.1 WSW 15 20 8 11 1018.0 1015.8 0.0
23/06:00am 13.0 11.4 12.8 99 0.1 WSW 13 19 7 10 1017.6 1015.3 0.0
23/05:30am 13.4 11.9 13.1 98 0.2 WSW 13 24 7 13 1017.1 1014.8 0.0
23/05:00am 13.1 10.4 12.9 99 0.1 W 19 26 10 14 1016.8 1014.6 0.0
23/04:30am 13.1 8.2 12.6 97 0.3 W 30 43 16 23 1016.1 1013.8 0.0
23/04:00am 13.0 6.4 12.7 98 0.2 W 39 54 21 29 1015.3 1013.0 0.0
23/03:30am 13.0 7.2 12.7 98 0.2 W 35 46 19 25 1015.6 1013.3 0.0
23/03:00am 13.1 7.7 12.3 95 0.4 W 32 41 17 22 1015.8 1013.5 0.0
23/02:30am 13.3 8.1 12.8 97 0.3 W 32 46 17 25 1015.9 1013.6 0.0
23/02:00am 13.5 8.7 13.0 97 0.3 W 30 41 16 22 1016.3 1014.1 0.0
23/01:30am 14.0 10.3 12.7 92 0.7 WSW 24 35 13 19 1016.7 1014.5 0.0
23/01:00am 14.4 11.1 12.8 90 0.9 W 22 32 12 17 1016.9 1014.7 0.0
23/12:30am 14.3 10.9 12.5 89 1.0 W 22 33 12 18 1016.8 1014.6 0.0
23/12:00am 14.5 10.8 12.7 89 1.0 W 24 37 13 20 1016.7 1014.5 0.0
 
Date/Time
CDT
Temp
°C
App
Temp
°C
Dew
Point
°C
Rel
Hum
%
Delta-T
°C
Wind Press
QNH
hPa
Press
MSL
hPa
Rain since
9am
mm
Dir  Spd
km/h
Gust
km/h
Spd
kts
Gust
kts
22/11:30pm 15.0 11.3 12.7 86 1.3 W 24 39 13 21 1016.8 1014.6 0.0
22/11:00pm 15.4 12.1 12.7 84 1.5 W 22 32 12 17 1016.8 1014.6 0.0
22/10:30pm 15.5 11.2 12.1 80 1.9 W 26 39 14 21 1016.6 1014.4 0.0
22/10:00pm 15.7 11.7 11.9 78 2.1 W 24 35 13 19 1016.4 1014.2 0.0
22/09:30pm 15.8 10.9 11.2 74 2.5 W 28 37 15 20 1015.9 1013.6 0.0
22/09:00pm 16.0 12.1 10.7 71 2.9 W 22 32 12 17 1015.6 1013.3 0.0
22/08:30pm 16.5 12.0 9.9 65 3.6 W 24 37 13 20 1015.2 1012.9 0.0
22/08:00pm 17.0 12.3 9.4 61 4.1 W 24 39 13 21 1014.5 1012.2 0.0
22/07:30pm 18.1 12.9 8.9 55 4.9 W 26 41 14 22 1014.1 1011.8 0.0
22/07:00pm 18.9 12.9 8.6 51 5.5 W 30 46 16 25 1013.6 1011.3 0.0
22/06:31pm 19.4 13.6 9.3 52 5.5 W 30 50 16 27 1013.1 1010.8 0.0
22/06:30pm 19.5 13.7 9.4 52 5.5 W 30 46 16 25 1013.2 1010.9 0.0
22/06:03pm 20.0 12.1 9.3 50 5.8 W 41 61 22 33 1012.6 1010.3 0.0
22/06:00pm 19.8 11.4 8.8 49 5.9 W 43 59 23 32 1012.5 1010.2 0.0
22/05:34pm 20.3 12.6 8.6 47 6.3 W 39 57 21 31 1012.3 1010.0 0.0
22/05:30pm 20.3 12.1 8.3 46 6.4 W 41 57 22 31 1012.2 1009.9 0.0
22/05:01pm 20.9 13.4 7.9 43 6.9 W 37 56 20 30 1012.4 1010.1 0.0
22/05:00pm 20.6 12.5 6.9 41 7.1 W 39 56 21 30 1012.3 1010.0 0.0
22/04:36pm 21.4 13.9 6.5 38 7.8 W 35 54 19 29 1012.1 1009.8 0.0
22/04:30pm 20.9 14.3 7.9 43 6.9 W 32 44 17 24 1012.1 1009.8 0.0
22/04:00pm 21.9 12.9 6.6 37 8.0 W 43 63 23 34 1011.8 1009.5 0.0
22/03:37pm 22.0 14.8 7.8 40 7.6 W 35 54 19 29 1011.7 1009.4 0.0
22/03:30pm 21.9 15.0 8.8 43 7.1 W 35 52 19 28 1011.8 1009.5 0.0
22/03:00pm 21.4 13.3 9.9 48 6.4 W 43 63 23 34 1011.3 1009.0 0.0
22/02:30pm 23.5 15.9 9.1 40 8.0 W 39 63 21 34 1010.6 1008.3 0.0
22/02:01pm 24.0 16.1 8.0 36 8.7 WNW 39 57 21 31 1010.8 1008.5 0.0
22/02:00pm 24.1 16.3 8.1 36 8.7 WNW 39 52 21 28 1011.1 1008.7 0.0
22/01:49pm 23.2 16.2 8.5 39 8.0 WNW 35 57 19 31 1011.2 1008.9 0.0
22/01:38pm 23.0 15.3 10.1 44 7.2 W 41 59 22 32 1011.2 1008.9 0.0
22/01:30pm 23.0 14.8 9.8 43 7.4 W 43 59 23 32 1011.3 1009.0 0.0
22/01:03pm 22.4 14.6 9.9 45 7.0 W 41 59 22 32 1011.2 1008.9 0.0
22/01:00pm 21.8 13.7 10.0 47 6.6 W 43 59 23 32 1010.9 1008.6 0.0
22/12:32pm 22.1 15.7 12.1 53 5.8 W 37 56 20 30 1011.1 1008.7 0.0
22/12:30pm 22.1 15.7 12.1 53 5.8 W 37 50 20 27 1011.2 1008.9 0.0
22/12:12pm 22.6 16.2 12.0 51 6.1 W 37 56 20 30 1011.5 1009.2 0.0
22/12:00pm 21.7 14.7 11.4 52 5.9 W 39 54 21 29 1011.5 1009.2 0.0
22/11:30am 22.1 15.3 12.1 53 5.8 W 39 59 21 32 1011.7 1009.4 0.0
22/11:14am 23.7 15.3 8.9 39 8.1 WNW 43 65 23 35 1011.6 1009.3 0.0
22/11:00am 25.0 15.2 3.6 25 10.8 WNW 44 67 24 36 1011.7 1009.4 0.0
22/10:40am 24.7 13.9 3.9 26 10.5 WNW 50 72 27 39 1011.4 1009.1 0.0
22/10:39am 25.2 14.3 3.8 25 10.9 WNW 50 74 27 40 1011.5 1009.2 0.0
22/10:30am 26.6 16.0 1.1 19 12.5 NW 46 76 25 41 1011.3 1009.0 0.0
22/10:24am 26.8 17.6 1.3 19 12.5 NW 39 65 21 35 1011.3 1009.0 0.0
22/10:22am 26.9 18.1 1.3 19 12.6 NNW 37 57 20 31 1011.4 1009.1 0.0
22/10:05am 26.2 17.9 2.2 21 11.9 N 35 54 19 29 1011.4 1009.1 0.0
22/10:00am 26.1 17.5 2.7 22 11.7 N 37 54 20 29 1011.5 1009.2 0.0
22/09:31am 25.1 17.5 3.1 24 11.0 N 32 50 17 27 1011.5 1009.2 0.0
22/09:30am 24.9 17.7 3.0 24 10.9 N 30 44 16 24 1011.6 1009.3 0.0
22/09:00am 23.7 15.9 2.0 24 10.6 N 32 44 17 24 1011.4 1009.1 0.0
22/08:30am 23.9 15.6 2.1 24 10.6 N 35 54 19 29 1011.1 1008.7 0.0
22/08:05am 23.4 14.3 1.7 24 10.5 N 39 59 21 32 1010.7 1008.4 0.0
22/08:00am 23.3 14.5 1.6 24 10.4 N 37 54 20 29 1010.7 1008.4 0.0
22/07:39am 22.8 14.4 1.8 25 10.1 NNE 35 54 19 29 1010.5 1008.2 0.0
22/07:30am 22.6 13.5 1.6 25 10.1 NNE 39 54 21 29 1010.4 1008.1 0.0
22/07:24am 22.7 14.3 1.7 25 10.1 NNE 35 54 19 29 1010.1 1007.8 0.0
22/07:00am 22.1 14.0 1.2 25 9.9 NNE 33 43 18 23 1010.4 1008.1 0.0
22/06:30am 22.6 14.6 1.6 25 10.1 N 33 54 18 29 1010.4 1008.1 0.0
22/06:10am 22.6 13.7 1.0 24 10.2 NNE 37 57 20 31 1010.2 1007.9 0.0
22/06:00am 22.7 13.5 1.1 24 10.3 N 39 54 21 29 1010.4 1008.1 0.0
22/05:30am 22.4 14.4 1.4 25 10.0 NNE 33 52 18 28 1010.5 1008.2 0.0
22/05:00am 21.3 13.2 1.0 26 9.5 NNE 33 54 18 29 1010.7 1008.4 0.0
22/04:54am 21.5 13.0 1.2 26 9.6 NNE 35 54 19 29 1010.6 1008.3 0.0
22/04:30am 20.9 12.7 0.2 25 9.5 NNE 33 44 18 24 1010.8 1008.5 0.0
22/04:00am 21.1 12.1 -0.2 24 9.7 NNE 37 50 20 27 1010.9 1008.6 0.0
22/03:31am 21.4 13.0 -1.2 22 10.1 NNE 33 52 18 28 1011.7 1009.4 0.0
22/03:30am 21.1 12.7 -1.4 22 10.1 NNE 33 44 18 24 1011.7 1009.4 0.0
22/03:11am 21.5 12.3 -1.7 21 10.3 NNE 37 56 20 30 1011.7 1009.4 0.0
22/03:00am 21.7 12.5 -1.6 21 10.4 NNE 37 52 20 28 1011.7 1009.4 0.0
22/02:30am 21.9 12.7 -1.4 21 10.5 NNE 37 57 20 31 1011.9 1009.6 0.0
22/02:29am 22.1 12.8 -1.9 20 10.7 NNE 37 57 20 31 1012.0 1009.7 0.0
22/02:00am 21.7 12.3 -0.3 23 10.1 NNE 39 52 21 28 1012.3 1010.0 0.0
22/01:30am 21.9 12.6 0.4 24 10.0 NE 39 54 21 29 1012.7 1010.4 0.0
22/01:00am 21.6 12.9 1.8 27 9.4 NE 37 56 20 30 1013.2 1010.9 0.0
22/12:40am 21.7 13.4 1.9 27 9.5 NE 35 54 19 29 1013.4 1011.1 0.0
22/12:30am 21.8 13.1 2.0 27 9.5 NE 37 50 20 27 1013.4 1011.1 0.0
22/12:00am 21.2 13.0 2.5 29 9.0 NE 35 48 19 26 1013.7 1011.4 0.0
 
Date/Time
CDT
Temp
°C
App
Temp
°C
Dew
Point
°C
Rel
Hum
%
Delta-T
°C
Wind Press
QNH
hPa
Press
MSL
hPa
Rain since
9am
mm
Dir  Spd
km/h
Gust
km/h
Spd
kts
Gust
kts
21/11:30pm 20.9 12.8 3.2 31 8.6 NE 35 46 19 25 1014.3 1012.0 0.0
21/11:00pm 21.0 13.2 2.8 30 8.8 NE 33 46 18 25 1014.6 1012.4 0.0
21/10:30pm 21.1 13.6 3.3 31 8.7 NE 32 46 17 25 1014.9 1012.7 0.0
21/10:00pm 20.9 13.4 3.6 32 8.5 NE 32 39 17 21 1015.1 1012.8 0.0
21/09:30pm 20.8 13.8 4.0 33 8.3 NE 30 39 16 21 1015.1 1012.8 0.0
21/09:00pm 21.3 13.9 4.0 32 8.6 NE 32 41 17 22 1014.7 1012.5 0.0
21/08:30pm 21.9 14.9 4.0 31 8.9 NE 30 43 16 23 1014.6 1012.4 0.0
21/08:00pm 22.4 15.9 4.5 31 9.0 NE 28 35 15 19 1014.4 1012.1 0.0
21/07:30pm 23.4 16.5 4.4 29 9.6 NE 30 39 16 21 1014.3 1012.0 0.0
21/07:00pm 24.0 17.9 4.9 29 9.8 NE 26 35 14 19 1014.2 1011.9 0.0
21/06:30pm 24.5 18.9 5.3 29 10.0 NE 24 33 13 18 1014.2 1011.9 0.0
21/06:00pm 25.3 20.0 5.0 27 10.5 NE 22 30 12 16 1014.3 1012.0 0.0
21/05:30pm 26.1 22.0 6.2 28 10.6 NNE 17 24 9 13 1014.6 1012.4 0.0
21/05:00pm 26.7 22.7 6.7 28 10.8 NNE 17 24 9 13 1014.8 1012.6 0.0
21/04:30pm 25.3 20.7 5.5 28 10.4 NNE 19 37 10 20 1015.3 1013.0 0.0
21/04:00pm 25.7 21.7 6.8 30 10.1 NNE 17 28 9 15 1015.7 1013.4 0.0
21/03:30pm 26.0 22.3 8.0 32 9.9 NNE 17 32 9 17 1016.2 1013.9 0.0
21/03:00pm 25.9 21.7 7.5 31 10.0 NNE 19 28 10 15 1016.6 1014.4 0.0
21/02:30pm 25.0 20.6 7.6 33 9.4 NE 20 30 11 16 1017.3 1015.0 0.0
21/02:00pm 23.5 19.1 6.7 34 8.9 N 19 33 10 18 1017.7 1015.4 0.0
21/01:30pm 23.6 19.4 7.3 35 8.7 N 19 28 10 15 1018.0 1015.8 0.0
21/01:00pm 22.4 18.0 6.6 36 8.3 NNE 19 26 10 14 1018.2 1016.0 0.0
21/12:30pm 22.1 18.2 8.6 42 7.3 N 19 26 10 14 1018.8 1016.6 0.0
21/12:00pm 21.7 18.0 7.9 41 7.4 N 17 22 9 12 1019.0 1016.8 0.0
21/11:30am 20.3 16.2 6.3 40 7.2 NNW 17 26 9 14 1019.4 1017.1 0.0
21/11:00am 20.1 16.7 7.5 44 6.6 NE 15 20 8 11 1019.5 1017.2 0.0
21/10:30am 18.6 14.2 7.4 48 5.8 NE 20 24 11 13 1019.5 1017.2 0.0
21/10:00am 17.2 13.1 7.8 54 4.9 NE 19 26 10 14 1019.8 1017.6 0.0
21/09:30am 15.5 11.2 7.8 60 3.9 ENE 20 28 11 15 1019.6 1017.3 0.0
21/09:00am 13.4 8.9 6.3 62 3.5 ENE 19 26 10 14 1019.6 1017.3 0.0
21/08:30am 12.1 8.5 6.6 69 2.7 ENE 15 20 8 11 1019.6 1017.3 0.0
21/08:00am 10.8 6.7 6.0 72 2.3 E 17 24 9 13 1019.3 1017.0 0.0
21/07:30am 9.8 4.9 5.2 73 2.1 E 20 30 11 16 1018.6 1016.4 0.0
21/07:00am 9.1 4.5 5.5 78 1.7 E 19 22 10 12 1018.5 1016.3 0.0
21/06:30am 8.5 3.9 6.5 87 0.9 ESE 20 24 11 13 1018.1 1015.9 0.0
21/06:00am 8.3 4.2 7.7 96 0.3 ESE 19 22 10 12 1018.0 1015.8 0.0
21/05:30am 8.4 4.3 7.8 96 0.3 E 19 24 10 13 1018.1 1015.9 0.0
21/05:00am 8.7 4.0 7.6 93 0.5 ESE 22 26 12 14 1018.3 1016.1 0.0
21/04:30am 8.7 4.3 7.3 91 0.7 ESE 20 24 11 13 1018.2 1016.0 0.0
21/04:00am 8.6 4.2 7.4 92 0.6 ESE 20 24 11 13 1018.0 1015.8 0.0
21/03:30am 8.7 3.9 7.5 92 0.6 ESE 22 26 12 14 1018.0 1015.8 0.0
21/03:00am 8.8 4.1 7.6 92 0.6 ESE 22 26 12 14 1018.2 1016.0 0.0
21/02:30am 8.8 4.1 7.7 93 0.5 ESE 22 26 12 14 1018.4 1016.2 0.0
21/02:00am 8.9 4.3 8.0 94 0.4 ESE 22 26 12 14 1018.6 1016.4 0.0
21/01:30am 9.1 4.5 8.0 93 0.5 ESE 22 26 12 14 1018.6 1016.4 0.0
21/01:00am 9.3 4.3 8.1 92 0.6 ESE 24 28 13 15 1018.8 1016.6 0.0
21/12:30am 9.3 4.6 7.7 90 0.8 SE 22 28 12 15 1019.2 1016.9 0.0
21/12:00am 9.4 5.1 7.7 89 0.8 ESE 20 28 11 15 1019.5 1017.2 0.0
 
Date/Time
CDT
Temp
°C
App
Temp
°C
Dew
Point
°C
Rel
Hum
%
Delta-T
°C
Wind Press
QNH
hPa
Press
MSL
hPa
Rain since
9am
mm
Dir  Spd
km/h
Gust
km/h
Spd
kts
Gust
kts
20/11:30pm 9.7 5.0 7.6 87 1.0 SE 22 30 12 16 1019.4 1017.1 0.0
20/11:00pm 9.9 5.1 7.2 83 1.3 SE 22 28 12 15 1019.5 1017.2 0.0
20/10:30pm 10.2 5.6 6.4 77 1.8 SE 20 26 11 14 1019.3 1017.0 0.0
20/10:00pm 10.4 5.8 6.5 77 1.9 SE 20 28 11 15 1019.3 1017.0 0.0
20/09:30pm 10.9 6.4 6.8 76 2.0 SE 20 26 11 14 1019.0 1016.8 0.0
20/09:00pm 11.4 6.8 6.7 73 2.3 SE 20 28 11 15 1018.9 1016.7 0.0
20/08:30pm 12.3 7.4 6.8 69 2.7 SE 22 30 12 16 1018.6 1016.4 0.0
20/08:00pm 13.4 8.9 7.0 65 3.2 SSE 20 26 11 14 1018.2 1016.0 0.0
20/07:30pm 15.0 11.6 7.8 62 3.7 SE 15 22 8 12 1017.9 1015.6 0.0
20/07:00pm 16.5 13.5 7.7 56 4.5 SSE 13 19 7 10 1017.4 1015.1 0.0
20/06:30pm 17.1 13.8 8.0 55 4.7 SSE 15 20 8 11 1017.2 1014.9 0.0
20/06:00pm 17.0 12.7 7.1 52 5.1 S 19 22 10 12 1016.9 1014.7 0.0
20/05:30pm 18.6 16.5 6.8 46 6.1 WSW 7 13 4 7 1016.8 1014.6 0.0

Other Formats:

Comma delimited format used in spreadsheet applications
http://www.bom.gov.au/fwo/IDS60801/IDS60801.94678.axf

JavaScript Object Notation format (JSON) in row-major order
http://www.bom.gov.au/fwo/IDS60801/IDS60801.94678.json